Time;durP1;ratioP1;P1;durP2;ratioP2;P2;SDS_P1;SDS_P2;PMS_P1;PMS_P2;Temp;Humidity;BMP_temperature;BMP_pressure;BME280_temperature;BME280_humidity;BME280_pressure;Samples;Min_cycle;Max_cycle;Signal;HPM_P1;HPM_P2
2023/11/05 00:01:40;;;;;;;;;;;7.50;99.90;;;;;;5061116;28;19908;-84
2023/11/05 00:04:07;;;;;;;;;;;7.60;99.90;;;;;;5047255;28;19913;-89
2023/11/05 00:06:33;;;;;;;;;;;7.50;99.90;;;;;;5054242;28;19919;-89
2023/11/05 00:08:59;;;;;;;;;;;7.60;99.90;;;;;;5050226;28;19913;-89
2023/11/05 00:11:24;;;;;;;;;;;7.60;99.90;;;;;;5053700;28;20008;-89
2023/11/05 00:13:50;;;;;;;;;;;7.60;99.90;;;;;;5054862;28;19928;-90
2023/11/05 00:16:16;;;;;;;;;;;7.50;99.90;;;;;;5054918;28;19917;-87
2023/11/05 00:18:41;;;;;;;;;;;7.50;99.90;;;;;;5048811;28;20378;-92
2023/11/05 00:21:07;;;;;;;;;;;7.60;99.90;;;;;;5056082;28;19913;-89
2023/11/05 00:23:33;;;;;;;;;;;7.60;99.90;;;;;;5060045;28;20046;-94
2023/11/05 00:26:00;;;;;;;;;;;7.60;99.90;;;;;;5059096;28;19951;-91
2023/11/05 00:28:26;;;;;;;;;;;7.60;99.90;;;;;;5061574;28;19916;-91
2023/11/05 00:30:52;;;;;;;;;;;7.70;99.90;;;;;;5073848;28;19917;-92
2023/11/05 00:33:17;;;;;;;;;;;7.70;99.90;;;;;;5079865;28;19912;-89
2023/11/05 00:35:46;;;;;;;;;;;7.60;99.90;;;;;;5078817;28;20010;-90
2023/11/05 00:38:12;;;;;;;;;;;7.70;99.90;;;;;;5072543;28;19974;-92
2023/11/05 00:40:38;;;;;;;;;;;7.70;99.90;;;;;;5056657;28;19920;-94
2023/11/05 00:43:04;;;;;;;;;;;7.70;99.90;;;;;;5078305;28;19912;-92
2023/11/05 00:45:30;;;;;;;;;;;7.70;99.90;;;;;;5065008;28;19913;-91
2023/11/05 00:47:56;;;;;;;;;;;7.80;99.90;;;;;;5070735;28;19912;-91
2023/11/05 00:50:22;;;;;;;;;;;7.70;99.90;;;;;;5070220;28;19908;-89
2023/11/05 00:52:48;;;;;;;;;;;7.70;99.90;;;;;;5056345;28;20003;-92
2023/11/05 00:55:14;;;;;;;;;;;7.70;99.90;;;;;;5087072;28;19913;-90
2023/11/05 00:57:40;;;;;;;;;;;7.70;99.90;;;;;;5073410;28;19947;-89
2023/11/05 01:00:08;;;;;;;;;;;7.80;99.90;;;;;;5077955;28;20329;-90
2023/11/05 01:02:37;;;;;;;;;;;7.80;99.90;;;;;;5070733;28;19908;-89
2023/11/05 01:05:05;;;;;;;;;;;7.80;99.90;;;;;;5057900;28;19909;-89
2023/11/05 01:07:31;;;;;;;;;;;7.80;99.90;;;;;;5065704;28;19919;-92
2023/11/05 01:09:57;;;;;;;;;;;7.80;99.90;;;;;;5060926;28;19917;-92
2023/11/05 01:12:22;;;;;;;;;;;7.70;99.90;;;;;;5072703;28;19917;-92
2023/11/05 01:14:48;;;;;;;;;;;7.60;99.90;;;;;;5067238;28;20010;-92
2023/11/05 01:17:14;;;;;;;;;;;7.60;99.90;;;;;;5071086;28;19913;-91
2023/11/05 01:19:40;;;;;;;;;;;7.60;99.90;;;;;;5064621;28;19915;-91
2023/11/05 01:22:06;;;;;;;;;;;7.50;99.90;;;;;;5072663;28;20283;-89
2023/11/05 01:24:32;;;;;;;;;;;7.50;99.90;;;;;;5091775;28;20095;-90
2023/11/05 01:26:58;;;;;;;;;;;7.60;99.90;;;;;;5088276;28;19901;-87
2023/11/05 01:29:23;;;;;;;;;;;7.60;99.90;;;;;;5073711;28;19913;-91
2023/11/05 01:31:49;;;;;;;;;;;7.70;99.90;;;;;;5074112;28;19927;-90
2023/11/05 01:34:15;;;;;;;;;;;7.70;99.90;;;;;;5075636;28;20391;-89
2023/11/05 01:36:41;;;;;;;;;;;7.60;99.90;;;;;;5058635;28;19908;-91
2023/11/05 01:39:07;;;;;;;;;;;7.70;99.90;;;;;;5076464;28;19916;-92
2023/11/05 01:41:32;;;;;;;;;;;7.70;99.90;;;;;;5072252;28;19963;-93
2023/11/05 01:43:58;;;;;;;;;;;7.80;99.90;;;;;;5053371;28;19909;-91
2023/11/05 01:46:26;;;;;;;;;;;7.80;99.90;;;;;;5074386;28;19912;-95
2023/11/05 01:48:53;;;;;;;;;;;7.60;99.90;;;;;;5073169;28;19909;-90
2023/11/05 01:51:19;;;;;;;;;;;7.80;99.90;;;;;;5050125;28;20492;-87
2023/11/05 01:53:47;;;;;;;;;;;7.80;99.90;;;;;;5068766;28;20353;-89
2023/11/05 01:56:13;;;;;;;;;;;7.90;99.90;;;;;;5063578;28;19936;-89
2023/11/05 01:58:39;;;;;;;;;;;7.90;99.90;;;;;;5071815;28;19912;-88
2023/11/05 02:01:06;;;;;;;;;;;7.90;99.90;;;;;;5073257;28;19920;-89
2023/11/05 02:03:31;;;;;;;;;;;7.90;99.90;;;;;;5059732;28;20648;-89
2023/11/05 02:05:58;;;;;;;;;;;7.90;99.90;;;;;;5065687;28;19909;-89
2023/11/05 02:08:24;;;;;;;;;;;8.00;99.90;;;;;;5069351;28;19913;-89
2023/11/05 02:10:49;;;;;;;;;;;8.00;99.90;;;;;;5060739;28;19942;-90
2023/11/05 02:13:15;;;;;;;;;;;8.00;99.90;;;;;;5071842;28;19976;-92
2023/11/05 02:15:41;;;;;;;;;;;8.00;99.90;;;;;;5093165;28;19979;-91
2023/11/05 02:18:06;;;;;;;;;;;8.00;99.90;;;;;;5078007;28;20357;-90
2023/11/05 02:20:32;;;;;;;;;;;8.10;99.90;;;;;;5078113;28;20025;-90
2023/11/05 02:22:59;;;;;;;;;;;8.10;99.90;;;;;;5067976;28;19909;-89
2023/11/05 02:25:25;;;;;;;;;;;8.10;99.90;;;;;;5058495;28;19909;-89
2023/11/05 02:27:51;;;;;;;;;;;8.20;99.90;;;;;;5050932;28;19928;-88
2023/11/05 02:30:18;;;;;;;;;;;8.20;99.90;;;;;;5067474;28;19897;-88
2023/11/05 02:32:44;;;;;;;;;;;8.30;99.90;;;;;;5070732;28;19925;-88
2023/11/05 02:35:12;;;;;;;;;;;8.30;99.90;;;;;;5056601;28;19916;-91
2023/11/05 02:37:40;;;;;;;;;;;8.30;99.90;;;;;;5070260;28;19908;-90
2023/11/05 02:40:06;;;;;;;;;;;8.40;99.90;;;;;;5076506;28;19916;-89
2023/11/05 02:42:32;;;;;;;;;;;8.40;99.90;;;;;;5064975;28;19916;-90
2023/11/05 02:44:58;;;;;;;;;;;8.30;99.90;;;;;;5053095;28;20420;-88
2023/11/05 02:47:24;;;;;;;;;;;8.50;99.90;;;;;;5076441;28;20361;-90
2023/11/05 02:49:50;;;;;;;;;;;8.50;99.90;;;;;;5076618;28;20440;-89
2023/11/05 02:52:15;;;;;;;;;;;8.50;99.90;;;;;;5074034;28;19964;-91
2023/11/05 02:54:41;;;;;;;;;;;8.60;99.90;;;;;;5072876;28;19908;-90
2023/11/05 02:57:07;;;;;;;;;;;8.60;99.90;;;;;;5080753;28;19915;-89
2023/11/05 02:59:33;;;;;;;;;;;8.60;99.90;;;;;;5073363;28;19943;-89
2023/11/05 03:01:59;;;;;;;;;;;8.60;99.90;;;;;;5053936;28;19924;-88
2023/11/05 03:04:25;;;;;;;;;;;8.60;99.90;;;;;;5066657;28;20015;-89
2023/11/05 03:06:51;;;;;;;;;;;8.60;99.90;;;;;;5061512;28;20005;-93
2023/11/05 03:09:17;;;;;;;;;;;8.70;99.90;;;;;;5075850;28;19916;-91
2023/11/05 03:11:45;;;;;;;;;;;8.70;99.90;;;;;;5081124;28;19920;-91
2023/11/05 03:14:11;;;;;;;;;;;8.70;99.90;;;;;;5074892;28;19978;-91
2023/11/05 03:16:38;;;;;;;;;;;8.70;99.90;;;;;;5073554;28;19905;-86
2023/11/05 03:19:03;;;;;;;;;;;8.90;99.90;;;;;;5077076;28;19921;-90
2023/11/05 03:21:31;;;;;;;;;;;8.80;99.90;;;;;;5082896;28;19934;-90
2023/11/05 03:23:57;;;;;;;;;;;8.80;99.90;;;;;;5090338;28;19920;-91
2023/11/05 03:26:24;;;;;;;;;;;8.80;99.90;;;;;;5085804;28;19970;-89
2023/11/05 03:28:50;;;;;;;;;;;8.90;99.90;;;;;;5068720;28;19966;-90
2023/11/05 03:31:16;;;;;;;;;;;8.90;99.90;;;;;;5057787;28;19921;-88
2023/11/05 03:33:42;;;;;;;;;;;9.00;99.90;;;;;;5061499;28;20270;-90
2023/11/05 03:36:08;;;;;;;;;;;9.00;99.90;;;;;;5061238;28;19963;-89
2023/11/05 03:38:34;;;;;;;;;;;9.10;99.90;;;;;;5063238;28;19971;-90
2023/11/05 03:41:00;;;;;;;;;;;9.10;99.90;;;;;;5065562;28;19918;-89
2023/11/05 03:43:26;;;;;;;;;;;9.10;99.90;;;;;;5070998;28;19916;-91
2023/11/05 03:45:52;;;;;;;;;;;9.20;99.90;;;;;;5074176;28;19908;-89
2023/11/05 03:48:17;;;;;;;;;;;9.10;99.90;;;;;;5077304;28;19912;-89
2023/11/05 03:50:43;;;;;;;;;;;9.10;99.90;;;;;;5084428;28;19917;-89
2023/11/05 03:53:09;;;;;;;;;;;9.10;99.90;;;;;;5070466;28;19913;-90
2023/11/05 03:55:34;;;;;;;;;;;9.20;99.90;;;;;;5056538;28;20184;-89
2023/11/05 03:58:00;;;;;;;;;;;9.20;99.90;;;;;;5056999;28;19909;-89
2023/11/05 04:00:25;;;;;;;;;;;9.20;99.90;;;;;;5071278;28;20333;-91
2023/11/05 04:02:51;;;;;;;;;;;9.20;99.90;;;;;;5074920;28;19913;-89
2023/11/05 04:05:17;;;;;;;;;;;9.20;99.90;;;;;;5086281;28;19960;-89
2023/11/05 04:07:43;;;;;;;;;;;9.30;99.90;;;;;;5086681;28;19909;-90
2023/11/05 04:10:08;;;;;;;;;;;9.30;99.90;;;;;;5072316;28;19921;-92
2023/11/05 04:12:34;;;;;;;;;;;9.30;99.90;;;;;;5075700;28;20011;-92
2023/11/05 04:15:04;;;;;;;;;;;9.30;99.90;;;;;;5066888;28;19916;-91
2023/11/05 04:17:30;;;;;;;;;;;9.30;99.90;;;;;;5070241;28;19958;-92
2023/11/05 04:19:56;;;;;;;;;;;9.30;99.90;;;;;;5068787;28;19915;-91
2023/11/05 04:22:23;;;;;;;;;;;9.40;99.90;;;;;;5073611;28;19926;-93
2023/11/05 04:24:48;;;;;;;;;;;9.40;99.90;;;;;;5073273;28;19919;-91
2023/11/05 04:27:14;;;;;;;;;;;9.40;99.90;;;;;;5077457;28;19908;-91
2023/11/05 04:29:40;;;;;;;;;;;9.40;99.90;;;;;;5077260;28;19908;-92
2023/11/05 04:32:06;;;;;;;;;;;9.40;99.90;;;;;;5063293;28;19923;-92
2023/11/05 04:34:32;;;;;;;;;;;9.40;99.90;;;;;;5078296;28;19909;-91
2023/11/05 04:36:58;;;;;;;;;;;9.40;99.90;;;;;;5081311;28;19933;-90
2023/11/05 04:39:25;;;;;;;;;;;9.50;99.90;;;;;;5074978;28;19917;-92
2023/11/05 04:41:52;;;;;;;;;;;9.50;99.90;;;;;;5064102;28;19916;-92
2023/11/05 04:44:18;;;;;;;;;;;9.50;99.90;;;;;;5075004;28;19912;-91
2023/11/05 04:46:44;;;;;;;;;;;9.50;99.90;;;;;;5078846;28;20318;-90
2023/11/05 04:49:09;;;;;;;;;;;9.50;99.90;;;;;;5084393;28;19919;-90
2023/11/05 04:51:35;;;;;;;;;;;9.50;99.90;;;;;;5064744;28;19920;-92
2023/11/05 04:54:01;;;;;;;;;;;9.50;99.90;;;;;;5075409;28;19908;-91
2023/11/05 04:56:26;;;;;;;;;;;9.60;99.90;;;;;;5059012;28;20297;-90
2023/11/05 04:58:52;;;;;;;;;;;9.60;99.90;;;;;;5075354;28;19909;-89
2023/11/05 05:01:18;;;;;;;;;;;9.60;99.90;;;;;;5074151;28;19962;-91
2023/11/05 05:03:43;;;;;;;;;;;9.60;99.90;;;;;;5078925;28;19935;-91
2023/11/05 05:06:09;;;;;;;;;;;9.60;99.90;;;;;;5084899;28;19896;-92
2023/11/05 05:08:36;;;;;;;;;;;9.70;99.90;;;;;;5076000;28;19966;-93
2023/11/05 05:11:02;;;;;;;;;;;9.60;99.90;;;;;;5063045;28;19931;-88
2023/11/05 05:13:29;;;;;;;;;;;9.60;99.90;;;;;;5067012;28;19995;-88
2023/11/05 05:15:55;;;;;;;;;;;9.70;99.90;;;;;;5061252;28;19958;-89
2023/11/05 05:18:20;;;;;;;;;;;9.70;99.90;;;;;;5080446;28;19908;-89
2023/11/05 05:20:46;;;;;;;;;;;9.70;99.90;;;;;;5073550;28;19962;-91
2023/11/05 05:23:11;;;;;;;;;;;9.70;99.90;;;;;;5073869;28;19933;-90
2023/11/05 05:25:37;;;;;;;;;;;9.80;99.90;;;;;;5071302;28;20408;-91
2023/11/05 05:28:03;;;;;;;;;;;9.80;99.90;;;;;;5056264;28;19909;-91
2023/11/05 05:30:28;;;;;;;;;;;9.70;99.90;;;;;;5056331;28;19923;-93
2023/11/05 05:32:54;;;;;;;;;;;9.70;99.90;;;;;;5058593;28;20277;-90
2023/11/05 05:35:20;;;;;;;;;;;9.70;99.90;;;;;;5076437;28;20285;-90
2023/11/05 05:37:45;;;;;;;;;;;9.90;99.90;;;;;;5070273;28;19915;-91
2023/11/05 05:40:11;;;;;;;;;;;9.80;99.90;;;;;;5063527;28;20011;-92
2023/11/05 05:42:37;;;;;;;;;;;9.80;99.90;;;;;;5087156;28;19978;-90
2023/11/05 05:45:03;;;;;;;;;;;9.90;99.90;;;;;;5086269;28;19916;-90
2023/11/05 05:47:29;;;;;;;;;;;9.90;99.90;;;;;;5065232;28;20294;-90
2023/11/05 05:49:55;;;;;;;;;;;9.90;99.90;;;;;;5058472;28;19913;-91
2023/11/05 05:52:21;;;;;;;;;;;9.90;99.90;;;;;;5070040;28;19963;-90
2023/11/05 05:54:46;;;;;;;;;;;9.90;99.90;;;;;;5058386;28;19909;-92
2023/11/05 05:57:12;;;;;;;;;;;10.00;99.90;;;;;;5057360;28;19909;-93
2023/11/05 05:59:38;;;;;;;;;;;10.00;99.90;;;;;;5081383;28;19943;-92
2023/11/05 06:02:07;;;;;;;;;;;10.00;99.90;;;;;;5053954;28;19909;-94
2023/11/05 06:04:33;;;;;;;;;;;10.00;99.90;;;;;;5070732;28;19920;-91
2023/11/05 06:06:59;;;;;;;;;;;10.00;99.90;;;;;;5083831;28;19905;-92
2023/11/05 06:09:25;;;;;;;;;;;10.00;99.90;;;;;;5088270;28;19970;-92
2023/11/05 06:11:50;;;;;;;;;;;10.10;99.90;;;;;;5062256;28;19981;-90
2023/11/05 06:14:17;;;;;;;;;;;10.10;99.90;;;;;;5068488;28;19916;-91
2023/11/05 06:16:59;;;;;;;;;;;10.10;99.90;;;;;;5081824;28;19909;-92
2023/11/05 06:19:25;;;;;;;;;;;10.10;99.90;;;;;;5045401;28;19913;-91
2023/11/05 06:21:50;;;;;;;;;;;10.00;99.90;;;;;;5059310;28;19913;-91
2023/11/05 06:24:16;;;;;;;;;;;10.00;99.90;;;;;;5067614;28;19915;-89
2023/11/05 06:26:44;;;;;;;;;;;10.00;99.90;;;;;;5059971;28;20278;-91
2023/11/05 06:29:09;;;;;;;;;;;10.10;99.90;;;;;;5056102;28;20439;-90
2023/11/05 06:31:35;;;;;;;;;;;10.10;99.90;;;;;;5068900;28;19920;-87
2023/11/05 06:34:01;;;;;;;;;;;10.10;99.90;;;;;;5081070;28;19901;-89
2023/11/05 06:36:26;;;;;;;;;;;10.20;99.90;;;;;;5065594;28;19909;-91
2023/11/05 06:38:52;;;;;;;;;;;10.20;99.90;;;;;;5058026;28;19916;-90
2023/11/05 06:41:17;;;;;;;;;;;10.20;99.90;;;;;;5063502;28;19915;-93
2023/11/05 06:43:43;;;;;;;;;;;10.20;99.90;;;;;;5067260;28;20003;-91
2023/11/05 06:46:09;;;;;;;;;;;10.20;99.90;;;;;;5070773;28;19920;-90
2023/11/05 06:48:35;;;;;;;;;;;10.10;99.90;;;;;;5069232;28;20285;-91
2023/11/05 06:51:01;;;;;;;;;;;10.30;99.90;;;;;;5067179;28;19908;-92
2023/11/05 06:53:26;;;;;;;;;;;10.30;99.90;;;;;;5068619;28;19908;-91
2023/11/05 06:55:52;;;;;;;;;;;10.30;99.90;;;;;;5075906;28;19904;-88
2023/11/05 06:58:19;;;;;;;;;;;10.40;99.90;;;;;;5071632;28;19959;-93
2023/11/05 07:00:44;;;;;;;;;;;10.40;99.90;;;;;;5067149;28;19912;-93
2023/11/05 07:03:10;;;;;;;;;;;10.40;99.90;;;;;;5076019;28;19909;-92
2023/11/05 07:05:36;;;;;;;;;;;10.40;99.90;;;;;;5062984;28;20288;-92
2023/11/05 07:08:05;;;;;;;;;;;10.50;99.90;;;;;;5057790;28;19944;-88
2023/11/05 07:10:30;;;;;;;;;;;10.50;99.90;;;;;;5057983;28;19921;-89
2023/11/05 07:12:56;;;;;;;;;;;10.60;99.90;;;;;;5069351;28;19970;-88
2023/11/05 07:15:24;;;;;;;;;;;10.60;99.90;;;;;;5067186;28;19932;-90
2023/11/05 07:17:50;;;;;;;;;;;10.70;99.90;;;;;;5076213;28;19983;-87
2023/11/05 07:20:16;;;;;;;;;;;10.70;99.90;;;;;;5061544;28;19939;-90
2023/11/05 07:22:46;;;;;;;;;;;10.80;99.90;;;;;;5064076;28;19915;-90
2023/11/05 07:25:12;;;;;;;;;;;10.80;99.90;;;;;;5064984;28;20285;-90
2023/11/05 07:27:38;;;;;;;;;;;10.90;99.90;;;;;;5076700;28;19928;-88
2023/11/05 07:30:04;;;;;;;;;;;10.90;99.90;;;;;;5078556;28;19913;-89
2023/11/05 07:32:30;;;;;;;;;;;10.90;99.90;;;;;;5068182;28;19960;-91
2023/11/05 07:34:56;;;;;;;;;;;10.80;99.90;;;;;;5076733;28;19909;-89
2023/11/05 07:37:21;;;;;;;;;;;10.80;99.90;;;;;;5064887;28;19909;-89
2023/11/05 07:39:47;;;;;;;;;;;10.80;99.90;;;;;;5073288;28;19915;-89
2023/11/05 07:42:13;;;;;;;;;;;10.80;99.90;;;;;;5083311;28;20626;-92
2023/11/05 07:44:38;;;;;;;;;;;10.90;99.90;;;;;;5078927;28;19974;-91
2023/11/05 07:47:04;;;;;;;;;;;10.90;99.90;;;;;;5078825;28;20012;-90
2023/11/05 07:49:30;;;;;;;;;;;10.90;99.90;;;;;;5075443;28;19917;-90
2023/11/05 07:51:55;;;;;;;;;;;11.00;99.90;;;;;;5081064;28;20309;-90
2023/11/05 07:54:21;;;;;;;;;;;10.80;99.90;;;;;;5055382;28;19961;-89
2023/11/05 07:56:49;;;;;;;;;;;11.00;99.90;;;;;;5051503;28;19908;-88
2023/11/05 07:59:15;;;;;;;;;;;11.00;99.90;;;;;;5054649;28;19912;-89
2023/11/05 08:01:41;;;;;;;;;;;11.10;99.90;;;;;;5055716;28;19915;-88
2023/11/05 08:04:06;;;;;;;;;;;11.10;99.90;;;;;;5054178;28;19920;-90
2023/11/05 08:06:32;;;;;;;;;;;11.10;99.90;;;;;;5055810;28;19913;-88
2023/11/05 08:08:58;;;;;;;;;;;11.20;99.90;;;;;;5072730;28;19909;-89
2023/11/05 08:11:23;;;;;;;;;;;11.20;99.90;;;;;;5055690;28;19932;-88
2023/11/05 08:13:49;;;;;;;;;;;11.30;99.90;;;;;;5055467;28;20016;-87
2023/11/05 08:16:15;;;;;;;;;;;11.30;99.90;;;;;;5063390;28;19912;-88
2023/11/05 08:18:40;;;;;;;;;;;11.40;99.90;;;;;;5057283;28;19913;-88
2023/11/05 08:21:08;;;;;;;;;;;11.50;99.90;;;;;;5063050;28;19963;-86
2023/11/05 08:23:34;;;;;;;;;;;11.50;99.90;;;;;;5069389;28;19916;-89
2023/11/05 08:26:00;;;;;;;;;;;11.60;99.90;;;;;;5082499;28;19930;-89
2023/11/05 08:28:26;;;;;;;;;;;11.60;99.90;;;;;;5075305;28;19912;-87
2023/11/05 08:30:51;;;;;;;;;;;11.60;99.90;;;;;;5073342;28;19908;-89
2023/11/05 08:33:17;;;;;;;;;;;11.50;99.90;;;;;;5074568;28;20042;-89
2023/11/05 08:35:43;;;;;;;;;;;11.60;99.90;;;;;;5066054;28;19930;-88
2023/11/05 08:38:09;;;;;;;;;;;11.60;99.90;;;;;;5068582;28;20035;-90
2023/11/05 08:40:34;;;;;;;;;;;11.60;99.90;;;;;;5054219;28;20298;-86
2023/11/05 08:43:01;;;;;;;;;;;11.60;99.90;;;;;;5056482;28;19909;-88
2023/11/05 08:45:27;;;;;;;;;;;11.60;99.90;;;;;;5082223;28;19923;-89
2023/11/05 08:47:53;;;;;;;;;;;11.60;99.90;;;;;;5096896;28;19909;-87
2023/11/05 08:50:19;;;;;;;;;;;11.60;99.90;;;;;;5084093;28;19980;-89
2023/11/05 08:52:45;;;;;;;;;;;11.60;99.90;;;;;;5096584;28;19922;-91
2023/11/05 08:55:12;;;;;;;;;;;11.70;99.90;;;;;;5076246;28;19909;-88
2023/11/05 08:57:38;;;;;;;;;;;11.80;99.90;;;;;;5054560;28;20352;-90
2023/11/05 09:00:09;;;;;;;;;;;11.90;99.90;;;;;;5072315;28;19951;-91
2023/11/05 09:02:35;;;;;;;;;;;12.00;99.90;;;;;;5075637;28;20292;-89
2023/11/05 09:05:00;;;;;;;;;;;12.30;99.90;;;;;;5072925;28;20007;-87
2023/11/05 09:07:26;;;;;;;;;;;12.90;99.80;;;;;;5055846;28;20370;-90
2023/11/05 09:09:53;;;;;;;;;;;13.20;98.70;;;;;;5058047;28;19908;-91
2023/11/05 09:12:20;;;;;;;;;;;13.50;98.20;;;;;;5063287;28;19920;-92
2023/11/05 09:14:46;;;;;;;;;;;13.80;97.70;;;;;;5052033;28;19913;-91
2023/11/05 09:17:11;;;;;;;;;;;13.90;97.00;;;;;;5056319;28;19978;-85
2023/11/05 09:19:37;;;;;;;;;;;14.00;96.50;;;;;;5056998;28;20304;-91
2023/11/05 09:22:03;;;;;;;;;;;13.90;95.80;;;;;;5056445;28;19981;-89
2023/11/05 09:24:29;;;;;;;;;;;13.80;96.00;;;;;;5064869;28;19920;-86
2023/11/05 09:26:55;;;;;;;;;;;13.80;95.80;;;;;;5085503;28;20027;-87
2023/11/05 09:29:21;;;;;;;;;;;13.70;95.80;;;;;;5071592;28;20366;-86
2023/11/05 09:31:49;;;;;;;;;;;13.70;95.70;;;;;;5070008;28;19927;-87
2023/11/05 09:34:15;;;;;;;;;;;13.60;95.60;;;;;;5066693;28;19999;-85
2023/11/05 09:36:41;;;;;;;;;;;13.50;95.30;;;;;;5072369;28;20357;-85
2023/11/05 09:39:07;;;;;;;;;;;13.60;95.60;;;;;;5074953;28;19954;-89
2023/11/05 09:41:34;;;;;;;;;;;13.60;95.60;;;;;;5073377;28;19931;-89
2023/11/05 09:44:01;;;;;;;;;;;13.80;95.20;;;;;;5070634;28;19908;-95
2023/11/05 09:46:31;;;;;;;;;;;13.60;94.50;;;;;;5073654;28;19913;-93
2023/11/05 09:48:58;;;;;;;;;;;13.50;95.00;;;;;;5061596;28;19953;-93
2023/11/05 09:51:24;;;;;;;;;;;13.40;95.10;;;;;;5079714;28;20250;-93
2023/11/05 09:53:50;;;;;;;;;;;13.60;95.30;;;;;;5070824;28;19916;-92
2023/11/05 09:56:15;;;;;;;;;;;13.80;94.60;;;;;;5055294;28;19966;-87
2023/11/05 09:58:41;;;;;;;;;;;13.90;94.60;;;;;;5052743;28;20262;-87
2023/11/05 10:01:08;;;;;;;;;;;14.10;94.70;;;;;;5052650;28;20001;-89
2023/11/05 10:03:35;;;;;;;;;;;14.30;94.50;;;;;;5053761;28;19980;-90
2023/11/05 10:06:01;;;;;;;;;;;14.60;94.20;;;;;;5045981;28;20321;-92
2023/11/05 10:08:27;;;;;;;;;;;14.90;93.90;;;;;;5040897;28;19913;-91
2023/11/05 10:10:57;;;;;;;;;;;15.00;93.40;;;;;;5066035;28;19931;-87
2023/11/05 10:13:27;;;;;;;;;;;14.80;93.10;;;;;;5045275;28;19921;-88
2023/11/05 10:15:52;;;;;;;;;;;14.40;93.00;;;;;;5044795;28;19913;-86
2023/11/05 10:18:18;;;;;;;;;;;14.10;93.40;;;;;;5055069;28;19909;-88
2023/11/05 10:20:47;;;;;;;;;;;13.60;94.00;;;;;;5048762;28;19913;-89
2023/11/05 10:23:13;;;;;;;;;;;13.60;94.40;;;;;;5051607;28;20323;-88
2023/11/05 10:25:41;;;;;;;;;;;13.50;94.70;;;;;;5062965;28;19959;-90
2023/11/05 10:28:11;;;;;;;;;;;13.60;94.90;;;;;;5080305;28;19990;-88
2023/11/05 10:30:37;;;;;;;;;;;13.80;94.90;;;;;;5058395;28;19923;-90
2023/11/05 10:33:05;;;;;;;;;;;13.90;94.40;;;;;;5056769;28;19917;-87
2023/11/05 10:35:32;;;;;;;;;;;13.90;94.20;;;;;;5054819;28;19913;-88
2023/11/05 10:37:58;;;;;;;;;;;13.80;94.20;;;;;;5072455;28;19907;-88
2023/11/05 10:40:24;;;;;;;;;;;13.60;94.60;;;;;;5064386;28;20160;-85
2023/11/05 10:42:50;;;;;;;;;;;13.60;94.70;;;;;;5052041;28;19959;-86
2023/11/05 10:45:17;;;;;;;;;;;13.50;94.90;;;;;;5053416;28;19909;-85
2023/11/05 10:47:45;;;;;;;;;;;13.40;95.00;;;;;;5056659;28;20008;-85
2023/11/05 10:50:31;;;;;;;;;;;13.40;95.20;;;;;;5055906;28;19908;-86
2023/11/05 10:52:58;;;;;;;;;;;13.40;95.20;;;;;;5054377;28;20020;-88
2023/11/05 10:55:34;;;;;;;;;;;13.20;95.30;;;;;;5059331;28;19916;-87
2023/11/05 10:58:00;;;;;;;;;;;13.30;95.50;;;;;;5054047;28;19920;-86
2023/11/05 11:00:26;;;;;;;;;;;13.30;95.50;;;;;;5055654;28;19954;-86
2023/11/05 11:02:53;;;;;;;;;;;13.30;95.50;;;;;;5053706;28;20258;-86
2023/11/05 11:05:19;;;;;;;;;;;13.30;95.40;;;;;;5055209;28;19920;-89
2023/11/05 11:07:45;;;;;;;;;;;13.30;95.60;;;;;;5056698;28;19952;-90
2023/11/05 11:10:12;;;;;;;;;;;13.40;95.60;;;;;;5056445;28;19923;-87
2023/11/05 11:12:39;;;;;;;;;;;13.40;95.30;;;;;;5057031;28;19917;-86
2023/11/05 11:15:08;;;;;;;;;;;13.40;95.50;;;;;;5056381;28;19916;-88
2023/11/05 11:17:37;;;;;;;;;;;13.40;95.70;;;;;;5063951;28;19959;-87
2023/11/05 11:20:09;;;;;;;;;;;13.50;95.60;;;;;;5058383;28;19908;-88
2023/11/05 11:22:44;;;;;;;;;;;13.50;95.60;;;;;;5060831;28;19916;-91
2023/11/05 11:25:10;;;;;;;;;;;13.50;95.40;;;;;;5053572;28;20263;-92
2023/11/05 11:27:42;;;;;;;;;;;13.30;95.40;;;;;;5061912;28;19909;-94
2023/11/05 11:30:09;;;;;;;;;;;13.40;95.40;;;;;;5070738;28;19909;-91
2023/11/05 11:32:39;;;;;;;;;;;13.30;95.50;;;;;;5066436;28;19921;-91
2023/11/05 11:35:06;;;;;;;;;;;13.30;95.60;;;;;;5045392;28;19916;-89
2023/11/05 11:37:33;;;;;;;;;;;13.30;95.70;;;;;;5065614;28;19908;-86
2023/11/05 11:40:00;;;;;;;;;;;13.20;95.80;;;;;;5073320;28;19917;-89
2023/11/05 11:42:26;;;;;;;;;;;13.20;95.90;;;;;;5067755;28;20295;-91
2023/11/05 11:44:52;;;;;;;;;;;13.20;96.00;;;;;;5067617;28;19912;-88
2023/11/05 11:47:20;;;;;;;;;;;13.20;96.00;;;;;;5072883;28;19897;-90
2023/11/05 11:49:46;;;;;;;;;;;13.20;96.00;;;;;;5075554;28;19917;-92
2023/11/05 11:52:11;;;;;;;;;;;13.20;96.10;;;;;;5066284;28;19923;-86
2023/11/05 11:54:37;;;;;;;;;;;13.20;96.10;;;;;;5073138;28;19987;-86
2023/11/05 11:57:03;;;;;;;;;;;13.20;96.00;;;;;;5069393;28;19920;-86
2023/11/05 11:59:28;;;;;;;;;;;13.20;96.10;;;;;;5075855;28;19917;-85
2023/11/05 12:01:56;;;;;;;;;;;13.10;96.30;;;;;;5090889;28;19908;-86
2023/11/05 12:04:23;;;;;;;;;;;13.20;96.30;;;;;;5096248;28;19919;-85
2023/11/05 12:06:49;;;;;;;;;;;13.20;96.30;;;;;;5077131;28;19912;-87
2023/11/05 12:09:21;;;;;;;;;;;13.10;96.30;;;;;;5064199;28;19917;-86
2023/11/05 12:11:49;;;;;;;;;;;13.10;96.30;;;;;;5067276;28;19974;-88
2023/11/05 12:14:18;;;;;;;;;;;13.10;96.40;;;;;;5074254;28;19924;-87
2023/11/05 12:16:44;;;;;;;;;;;13.10;96.30;;;;;;5053376;28;20415;-87
2023/11/05 12:19:10;;;;;;;;;;;13.00;96.40;;;;;;5053790;28;20004;-87
2023/11/05 12:21:36;;;;;;;;;;;13.00;96.60;;;;;;5058101;28;20289;-86
2023/11/05 12:24:03;;;;;;;;;;;13.00;96.70;;;;;;5056534;28;19909;-88
2023/11/05 12:26:29;;;;;;;;;;;13.00;96.70;;;;;;5073969;28;19904;-87
2023/11/05 12:28:55;;;;;;;;;;;13.00;96.60;;;;;;5079145;28;20348;-86
2023/11/05 12:31:24;;;;;;;;;;;12.90;96.70;;;;;;5071895;28;20420;-86
2023/11/05 12:33:50;;;;;;;;;;;12.90;96.80;;;;;;5073906;28;19909;-86
2023/11/05 12:36:15;;;;;;;;;;;12.90;96.80;;;;;;5077697;28;19908;-89
2023/11/05 12:38:41;;;;;;;;;;;12.80;96.90;;;;;;5073602;28;19961;-86
2023/11/05 12:41:07;;;;;;;;;;;12.90;97.00;;;;;;5057029;28;19966;-87
2023/11/05 12:43:33;;;;;;;;;;;12.90;96.90;;;;;;5067854;28;20313;-91
2023/11/05 12:45:59;;;;;;;;;;;12.80;97.00;;;;;;5054373;28;19912;-87
2023/11/05 12:48:24;;;;;;;;;;;12.80;97.00;;;;;;5056698;28;19960;-90
2023/11/05 12:50:51;;;;;;;;;;;12.80;97.10;;;;;;5054909;28;19909;-88
2023/11/05 12:53:17;;;;;;;;;;;12.80;97.10;;;;;;5059548;28;20341;-89
2023/11/05 12:55:43;;;;;;;;;;;12.80;97.20;;;;;;5055739;28;20362;-88
2023/11/05 12:58:08;;;;;;;;;;;12.70;97.20;;;;;;5056024;28;20004;-89
2023/11/05 13:00:34;;;;;;;;;;;12.70;97.30;;;;;;5055414;28;19917;-88
2023/11/05 13:03:00;;;;;;;;;;;12.70;97.30;;;;;;5063303;28;19909;-87
2023/11/05 13:05:26;;;;;;;;;;;12.70;97.30;;;;;;5070013;28;19948;-89
2023/11/05 13:07:51;;;;;;;;;;;12.70;97.40;;;;;;5057406;28;19908;-89
2023/11/05 13:10:17;;;;;;;;;;;12.70;97.50;;;;;;5051809;28;19932;-88
2023/11/05 13:12:43;;;;;;;;;;;12.70;97.50;;;;;;5059630;28;19963;-87
2023/11/05 13:15:12;;;;;;;;;;;12.70;97.60;;;;;;5056314;28;20211;-88
2023/11/05 13:17:38;;;;;;;;;;;12.60;97.50;;;;;;5052410;28;20285;-88
2023/11/05 13:20:08;;;;;;;;;;;12.70;97.60;;;;;;5051664;28;19923;-86
2023/11/05 13:22:34;;;;;;;;;;;12.70;97.70;;;;;;5048222;28;19975;-87
2023/11/05 13:25:00;;;;;;;;;;;12.60;97.70;;;;;;5051798;28;19908;-86
2023/11/05 13:27:26;;;;;;;;;;;12.60;97.70;;;;;;5060306;28;20024;-86
2023/11/05 13:29:51;;;;;;;;;;;12.60;97.80;;;;;;5053110;28;19916;-87
2023/11/05 13:32:17;;;;;;;;;;;12.50;97.80;;;;;;5052755;28;20349;-85
2023/11/05 13:34:44;;;;;;;;;;;12.60;97.90;;;;;;5059146;28;19919;-87
2023/11/05 13:37:10;;;;;;;;;;;12.50;97.90;;;;;;5081851;28;19917;-85
2023/11/05 13:39:38;;;;;;;;;;;12.40;98.00;;;;;;5063140;28;19917;-90
2023/11/05 13:42:05;;;;;;;;;;;12.40;98.10;;;;;;5046659;28;20393;-88
2023/11/05 13:44:31;;;;;;;;;;;12.40;98.20;;;;;;5056280;28;19948;-89
2023/11/05 13:46:57;;;;;;;;;;;12.40;98.30;;;;;;5056583;28;19913;-90
2023/11/05 13:49:22;;;;;;;;;;;12.40;98.30;;;;;;5065058;28;19915;-89
2023/11/05 13:51:48;;;;;;;;;;;12.30;98.30;;;;;;5074801;28;19990;-90
2023/11/05 13:54:14;;;;;;;;;;;12.30;98.40;;;;;;5058468;28;20039;-93
2023/11/05 13:56:39;;;;;;;;;;;12.30;98.40;;;;;;5061006;28;19909;-89
2023/11/05 13:59:05;;;;;;;;;;;12.30;98.50;;;;;;5059961;28;20357;-91
2023/11/05 14:01:33;;;;;;;;;;;12.20;98.50;;;;;;5056372;28;19909;-90
2023/11/05 14:04:00;;;;;;;;;;;12.20;98.60;;;;;;5057412;28;19909;-90
2023/11/05 14:06:25;;;;;;;;;;;12.20;98.70;;;;;;5063316;28;20042;-90
2023/11/05 14:08:51;;;;;;;;;;;12.10;98.80;;;;;;5063844;28;19919;-93
2023/11/05 14:11:19;;;;;;;;;;;12.10;99.00;;;;;;5071991;28;20030;-86
2023/11/05 14:13:45;;;;;;;;;;;12.10;99.10;;;;;;5071958;28;19917;-90
2023/11/05 14:16:10;;;;;;;;;;;12.10;99.10;;;;;;5077942;28;19965;-89
2023/11/05 14:18:37;;;;;;;;;;;12.10;99.20;;;;;;5071017;28;19909;-91